sensor_id;sensor_type;location;lat;lon;timestamp;temperature;humidity
23801;DHT22;12081;48.614;10.226;2022-10-23T00:01:26;7.70;99.90
23801;DHT22;12081;48.614;10.226;2022-10-23T00:04:15;7.70;99.90
23801;DHT22;12081;48.614;10.226;2022-10-23T00:06:59;7.70;99.90
23801;DHT22;12081;48.614;10.226;2022-10-23T00:09:43;8.80;99.90
23801;DHT22;12081;48.614;10.226;2022-10-23T00:12:28;8.00;99.90
23801;DHT22;12081;48.614;10.226;2022-10-23T00:15:13;8.30;99.90
23801;DHT22;12081;48.614;10.226;2022-10-23T00:17:57;9.30;99.90
23801;DHT22;12081;48.614;10.226;2022-10-23T00:20:41;8.40;99.90
23801;DHT22;12081;48.614;10.226;2022-10-23T00:23:25;7.70;99.90
23801;DHT22;12081;48.614;10.226;2022-10-23T00:26:10;7.70;99.90
23801;DHT22;12081;48.614;10.226;2022-10-23T00:28:58;8.20;99.90
23801;DHT22;12081;48.614;10.226;2022-10-23T00:31:42;8.40;99.90
23801;DHT22;12081;48.614;10.226;2022-10-23T00:34:26;9.10;99.90
23801;DHT22;12081;48.614;10.226;2022-10-23T00:37:10;8.60;99.90
23801;DHT22;12081;48.614;10.226;2022-10-23T00:39:54;7.50;99.90
23801;DHT22;12081;48.614;10.226;2022-10-23T00:42:38;7.60;99.90
23801;DHT22;12081;48.614;10.226;2022-10-23T00:45:24;8.70;99.90
23801;DHT22;12081;48.614;10.226;2022-10-23T00:48:09;7.50;99.90
23801;DHT22;12081;48.614;10.226;2022-10-23T00:50:54;7.40;99.90
23801;DHT22;12081;48.614;10.226;2022-10-23T00:53:39;8.90;99.90
23801;DHT22;12081;48.614;10.226;2022-10-23T00:56:25;8.40;99.90
23801;DHT22;12081;48.614;10.226;2022-10-23T00:59:10;9.00;99.90
23801;DHT22;12081;48.614;10.226;2022-10-23T01:01:55;8.70;99.90
23801;DHT22;12081;48.614;10.226;2022-10-23T01:04:39;8.40;99.90
23801;DHT22;12081;48.614;10.226;2022-10-23T01:16:11;7.40;99.90
23801;DHT22;12081;48.614;10.226;2022-10-23T01:26:06;8.10;99.90
23801;DHT22;12081;48.614;10.226;2022-10-23T01:28:35;7.00;99.90
23801;DHT22;12081;48.614;10.226;2022-10-23T01:31:29;7.20;99.90
23801;DHT22;12081;48.614;10.226;2022-10-23T01:34:36;7.30;99.90
23801;DHT22;12081;48.614;10.226;2022-10-23T01:37:42;7.20;99.90
23801;DHT22;12081;48.614;10.226;2022-10-23T01:40:34;7.90;99.90
23801;DHT22;12081;48.614;10.226;2022-10-23T01:43:24;7.20;99.90
23801;DHT22;12081;48.614;10.226;2022-10-23T01:46:13;8.20;99.90
23801;DHT22;12081;48.614;10.226;2022-10-23T01:48:59;8.70;99.90
23801;DHT22;12081;48.614;10.226;2022-10-23T01:51:50;8.30;99.90
23801;DHT22;12081;48.614;10.226;2022-10-23T01:54:39;8.20;99.90
23801;DHT22;12081;48.614;10.226;2022-10-23T01:57:27;8.40;99.90
23801;DHT22;12081;48.614;10.226;2022-10-23T03:00:28;7.30;99.90
23801;DHT22;12081;48.614;10.226;2022-10-23T03:03:29;8.20;99.90
23801;DHT22;12081;48.614;10.226;2022-10-23T03:06:16;7.40;99.90
23801;DHT22;12081;48.614;10.226;2022-10-23T03:09:06;8.30;99.90
23801;DHT22;12081;48.614;10.226;2022-10-23T03:11:50;8.00;99.90
23801;DHT22;12081;48.614;10.226;2022-10-23T03:14:35;8.80;99.90
23801;DHT22;12081;48.614;10.226;2022-10-23T03:17:19;8.10;99.90
23801;DHT22;12081;48.614;10.226;2022-10-23T03:20:04;7.50;99.90
23801;DHT22;12081;48.614;10.226;2022-10-23T03:22:48;7.60;99.90
23801;DHT22;12081;48.614;10.226;2022-10-23T03:25:32;8.40;99.90
23801;DHT22;12081;48.614;10.226;2022-10-23T03:28:16;8.10;99.90
23801;DHT22;12081;48.614;10.226;2022-10-23T03:31:01;8.30;99.90
23801;DHT22;12081;48.614;10.226;2022-10-23T03:33:46;7.90;99.90
23801;DHT22;12081;48.614;10.226;2022-10-23T03:36:30;8.00;99.90
23801;DHT22;12081;48.614;10.226;2022-10-23T03:39:15;7.30;99.90
23801;DHT22;12081;48.614;10.226;2022-10-23T03:41:59;7.90;99.90
23801;DHT22;12081;48.614;10.226;2022-10-23T03:44:43;7.30;99.90
23801;DHT22;12081;48.614;10.226;2022-10-23T03:47:27;8.20;99.90
23801;DHT22;12081;48.614;10.226;2022-10-23T03:50:13;8.20;99.90
23801;DHT22;12081;48.614;10.226;2022-10-23T03:52:58;7.30;99.90
23801;DHT22;12081;48.614;10.226;2022-10-23T03:55:44;7.80;99.90
23801;DHT22;12081;48.614;10.226;2022-10-23T03:58:28;8.40;99.90
23801;DHT22;12081;48.614;10.226;2022-10-23T04:01:14;7.90;99.90
23801;DHT22;12081;48.614;10.226;2022-10-23T04:03:58;8.40;99.90
23801;DHT22;12081;48.614;10.226;2022-10-23T04:06:42;8.20;99.90
23801;DHT22;12081;48.614;10.226;2022-10-23T04:09:26;8.00;99.90
23801;DHT22;12081;48.614;10.226;2022-10-23T04:12:11;7.00;99.90
23801;DHT22;12081;48.614;10.226;2022-10-23T04:14:55;8.20;99.90
23801;DHT22;12081;48.614;10.226;2022-10-23T04:17:39;8.20;99.90
23801;DHT22;12081;48.614;10.226;2022-10-23T04:20:23;7.80;99.90
23801;DHT22;12081;48.614;10.226;2022-10-23T04:23:07;7.80;99.90
23801;DHT22;12081;48.614;10.226;2022-10-23T04:25:51;8.40;99.90
23801;DHT22;12081;48.614;10.226;2022-10-23T04:28:38;8.10;99.90
23801;DHT22;12081;48.614;10.226;2022-10-23T04:31:23;7.30;99.90
23801;DHT22;12081;48.614;10.226;2022-10-23T04:34:07;7.10;99.90
23801;DHT22;12081;48.614;10.226;2022-10-23T04:36:51;7.10;99.90
23801;DHT22;12081;48.614;10.226;2022-10-23T04:39:35;7.80;99.90
23801;DHT22;12081;48.614;10.226;2022-10-23T04:42:19;7.70;99.90
23801;DHT22;12081;48.614;10.226;2022-10-23T04:45:04;7.90;99.90
23801;DHT22;12081;48.614;10.226;2022-10-23T04:47:49;7.20;99.90
23801;DHT22;12081;48.614;10.226;2022-10-23T04:50:33;7.80;99.90
23801;DHT22;12081;48.614;10.226;2022-10-23T04:53:17;8.20;99.90
23801;DHT22;12081;48.614;10.226;2022-10-23T04:56:01;8.50;99.90
23801;DHT22;12081;48.614;10.226;2022-10-23T04:58:45;8.30;99.90
23801;DHT22;12081;48.614;10.226;2022-10-23T05:01:30;8.50;99.90
23801;DHT22;12081;48.614;10.226;2022-10-23T05:04:14;8.20;99.90
23801;DHT22;12081;48.614;10.226;2022-10-23T05:06:58;7.20;99.90
23801;DHT22;12081;48.614;10.226;2022-10-23T05:09:42;7.30;99.90
23801;DHT22;12081;48.614;10.226;2022-10-23T05:12:26;7.90;99.90
23801;DHT22;12081;48.614;10.226;2022-10-23T05:15:11;7.40;99.90
23801;DHT22;12081;48.614;10.226;2022-10-23T05:17:58;8.00;99.90
23801;DHT22;12081;48.614;10.226;2022-10-23T05:20:45;7.80;99.90
23801;DHT22;12081;48.614;10.226;2022-10-23T05:23:32;7.30;99.90
23801;DHT22;12081;48.614;10.226;2022-10-23T05:26:19;8.00;99.90
23801;DHT22;12081;48.614;10.226;2022-10-23T05:29:06;7.40;99.90
23801;DHT22;12081;48.614;10.226;2022-10-23T05:31:53;8.70;99.90
23801;DHT22;12081;48.614;10.226;2022-10-23T05:34:39;7.80;99.90
23801;DHT22;12081;48.614;10.226;2022-10-23T05:37:27;8.30;99.90
23801;DHT22;12081;48.614;10.226;2022-10-23T05:40:12;8.20;99.90
23801;DHT22;12081;48.614;10.226;2022-10-23T05:42:57;8.70;99.90
23801;DHT22;12081;48.614;10.226;2022-10-23T05:45:41;9.00;99.90
23801;DHT22;12081;48.614;10.226;2022-10-23T05:48:25;7.70;99.90
23801;DHT22;12081;48.614;10.226;2022-10-23T05:51:10;7.70;99.90
23801;DHT22;12081;48.614;10.226;2022-10-23T05:54:01;9.10;99.90
23801;DHT22;12081;48.614;10.226;2022-10-23T05:56:45;8.90;99.90
23801;DHT22;12081;48.614;10.226;2022-10-23T05:59:29;9.10;99.90
23801;DHT22;12081;48.614;10.226;2022-10-23T06:02:13;9.00;99.90
23801;DHT22;12081;48.614;10.226;2022-10-23T06:04:57;8.00;99.90
23801;DHT22;12081;48.614;10.226;2022-10-23T06:07:41;7.80;99.90
23801;DHT22;12081;48.614;10.226;2022-10-23T06:10:26;7.90;99.90
23801;DHT22;12081;48.614;10.226;2022-10-23T06:13:10;9.00;99.90
23801;DHT22;12081;48.614;10.226;2022-10-23T06:15:55;8.00;99.90
23801;DHT22;12081;48.614;10.226;2022-10-23T06:18:39;9.00;99.90
23801;DHT22;12081;48.614;10.226;2022-10-23T06:21:23;8.90;99.90
23801;DHT22;12081;48.614;10.226;2022-10-23T06:24:08;8.80;99.90
23801;DHT22;12081;48.614;10.226;2022-10-23T06:26:52;9.10;99.90
23801;DHT22;12081;48.614;10.226;2022-10-23T06:29:37;9.00;99.90
23801;DHT22;12081;48.614;10.226;2022-10-23T06:32:21;9.70;99.90
23801;DHT22;12081;48.614;10.226;2022-10-23T06:35:05;9.30;99.90
23801;DHT22;12081;48.614;10.226;2022-10-23T06:37:49;8.60;99.90
23801;DHT22;12081;48.614;10.226;2022-10-23T06:40:34;9.70;99.90
23801;DHT22;12081;48.614;10.226;2022-10-23T06:43:18;8.80;99.90
23801;DHT22;12081;48.614;10.226;2022-10-23T06:46:03;8.90;99.90
23801;DHT22;12081;48.614;10.226;2022-10-23T06:48:47;8.90;99.90
23801;DHT22;12081;48.614;10.226;2022-10-23T06:51:32;10.60;99.90
23801;DHT22;12081;48.614;10.226;2022-10-23T06:54:16;10.30;99.90
23801;DHT22;12081;48.614;10.226;2022-10-23T06:57:00;9.00;99.90
23801;DHT22;12081;48.614;10.226;2022-10-23T06:59:44;9.20;99.90
23801;DHT22;12081;48.614;10.226;2022-10-23T07:02:28;9.90;99.90
23801;DHT22;12081;48.614;10.226;2022-10-23T07:05:12;10.80;99.90
23801;DHT22;12081;48.614;10.226;2022-10-23T07:07:56;9.20;99.90
23801;DHT22;12081;48.614;10.226;2022-10-23T07:10:40;9.30;99.90
23801;DHT22;12081;48.614;10.226;2022-10-23T07:13:28;9.70;99.90
23801;DHT22;12081;48.614;10.226;2022-10-23T07:16:17;11.00;99.90
23801;DHT22;12081;48.614;10.226;2022-10-23T07:19:02;9.40;99.90
23801;DHT22;12081;48.614;10.226;2022-10-23T07:21:46;10.10;99.90
23801;DHT22;12081;48.614;10.226;2022-10-23T07:24:31;10.30;99.90
23801;DHT22;12081;48.614;10.226;2022-10-23T07:27:20;10.60;99.90
23801;DHT22;12081;48.614;10.226;2022-10-23T07:30:04;9.50;99.90
23801;DHT22;12081;48.614;10.226;2022-10-23T07:32:48;9.60;99.90
23801;DHT22;12081;48.614;10.226;2022-10-23T07:35:32;10.70;99.90
23801;DHT22;12081;48.614;10.226;2022-10-23T07:38:16;10.70;99.90
23801;DHT22;12081;48.614;10.226;2022-10-23T07:41:01;9.80;99.90
23801;DHT22;12081;48.614;10.226;2022-10-23T07:43:46;9.90;99.90
23801;DHT22;12081;48.614;10.226;2022-10-23T07:46:30;10.20;99.90
23801;DHT22;12081;48.614;10.226;2022-10-23T07:49:14;11.70;99.90
23801;DHT22;12081;48.614;10.226;2022-10-23T07:51:58;10.20;99.90
23801;DHT22;12081;48.614;10.226;2022-10-23T07:54:42;10.80;99.90
23801;DHT22;12081;48.614;10.226;2022-10-23T07:57:26;11.10;99.90
23801;DHT22;12081;48.614;10.226;2022-10-23T08:00:10;10.40;99.90
23801;DHT22;12081;48.614;10.226;2022-10-23T08:02:55;10.40;99.90
23801;DHT22;12081;48.614;10.226;2022-10-23T08:05:39;11.50;99.90
23801;DHT22;12081;48.614;10.226;2022-10-23T08:08:24;10.60;99.90
23801;DHT22;12081;48.614;10.226;2022-10-23T08:11:12;12.30;99.90
23801;DHT22;12081;48.614;10.226;2022-10-23T08:13:57;11.40;99.90
23801;DHT22;12081;48.614;10.226;2022-10-23T08:16:41;11.10;99.90
23801;DHT22;12081;48.614;10.226;2022-10-23T08:19:25;11.10;99.90
23801;DHT22;12081;48.614;10.226;2022-10-23T08:22:09;11.10;99.90
23801;DHT22;12081;48.614;10.226;2022-10-23T08:24:54;11.10;99.90
23801;DHT22;12081;48.614;10.226;2022-10-23T08:27:38;11.20;99.90
23801;DHT22;12081;48.614;10.226;2022-10-23T08:30:22;11.10;99.90
23801;DHT22;12081;48.614;10.226;2022-10-23T08:33:07;11.00;99.90
23801;DHT22;12081;48.614;10.226;2022-10-23T08:35:51;10.90;99.90
23801;DHT22;12081;48.614;10.226;2022-10-23T08:38:35;11.70;99.90
23801;DHT22;12081;48.614;10.226;2022-10-23T08:41:35;11.20;99.90
23801;DHT22;12081;48.614;10.226;2022-10-23T08:44:45;12.40;99.90
23801;DHT22;12081;48.614;10.226;2022-10-23T08:47:41;12.20;99.90
23801;DHT22;12081;48.614;10.226;2022-10-23T08:50:34;11.60;99.90
23801;DHT22;12081;48.614;10.226;2022-10-23T08:53:25;10.80;99.90
23801;DHT22;12081;48.614;10.226;2022-10-23T08:56:26;11.90;99.90
23801;DHT22;12081;48.614;10.226;2022-10-23T08:59:35;10.90;99.90
23801;DHT22;12081;48.614;10.226;2022-10-23T09:02:32;11.00;99.90
23801;DHT22;12081;48.614;10.226;2022-10-23T09:05:24;11.10;99.90
23801;DHT22;12081;48.614;10.226;2022-10-23T09:11:54;11.70;99.90
23801;DHT22;12081;48.614;10.226;2022-10-23T09:15:26;12.10;99.90
23801;DHT22;12081;48.614;10.226;2022-10-23T09:18:15;12.60;99.90
23801;DHT22;12081;48.614;10.226;2022-10-23T09:21:00;12.70;99.90
23801;DHT22;12081;48.614;10.226;2022-10-23T09:23:45;13.10;99.90
23801;DHT22;12081;48.614;10.226;2022-10-23T09:26:29;12.70;99.90
23801;DHT22;12081;48.614;10.226;2022-10-23T09:29:22;13.00;99.90
23801;DHT22;12081;48.614;10.226;2022-10-23T09:32:07;12.90;99.90
23801;DHT22;12081;48.614;10.226;2022-10-23T09:34:53;13.10;99.90
23801;DHT22;12081;48.614;10.226;2022-10-23T09:37:45;13.10;99.90
23801;DHT22;12081;48.614;10.226;2022-10-23T09:40:38;13.40;99.90
23801;DHT22;12081;48.614;10.226;2022-10-23T09:43:23;13.40;99.90
23801;DHT22;12081;48.614;10.226;2022-10-23T09:46:10;13.70;99.90
23801;DHT22;12081;48.614;10.226;2022-10-23T09:48:58;13.90;99.90
23801;DHT22;12081;48.614;10.226;2022-10-23T09:52:04;13.90;99.90
23801;DHT22;12081;48.614;10.226;2022-10-23T09:55:13;14.10;99.90
23801;DHT22;12081;48.614;10.226;2022-10-23T09:57:59;14.10;99.90
23801;DHT22;12081;48.614;10.226;2022-10-23T10:00:46;14.30;99.90
23801;DHT22;12081;48.614;10.226;2022-10-23T10:03:30;14.60;99.90
23801;DHT22;12081;48.614;10.226;2022-10-23T10:06:23;14.90;99.90
23801;DHT22;12081;48.614;10.226;2022-10-23T10:09:13;15.00;99.90
23801;DHT22;12081;48.614;10.226;2022-10-23T10:12:49;15.10;99.90
23801;DHT22;12081;48.614;10.226;2022-10-23T10:15:36;15.30;99.90
23801;DHT22;12081;48.614;10.226;2022-10-23T10:18:36;15.70;99.90
23801;DHT22;12081;48.614;10.226;2022-10-23T10:34:16;17.20;99.90
23801;DHT22;12081;48.614;10.226;2022-10-23T10:37:30;18.50;99.90
23801;DHT22;12081;48.614;10.226;2022-10-23T10:40:34;19.80;99.90
23801;DHT22;12081;48.614;10.226;2022-10-23T10:43:51;21.10;99.90
23801;DHT22;12081;48.614;10.226;2022-10-23T10:46:58;22.20;98.40
23801;DHT22;12081;48.614;10.226;2022-10-23T10:50:01;23.40;92.30
23801;DHT22;12081;48.614;10.226;2022-10-23T10:53:17;24.20;87.90
23801;DHT22;12081;48.614;10.226;2022-10-23T10:56:03;24.30;82.00
23801;DHT22;12081;48.614;10.226;2022-10-23T10:58:58;24.50;80.10
23801;DHT22;12081;48.614;10.226;2022-10-23T11:04:48;25.10;72.00
23801;DHT22;12081;48.614;10.226;2022-10-23T11:07:39;24.80;72.90
23801;DHT22;12081;48.614;10.226;2022-10-23T11:10:25;25.10;71.80
23801;DHT22;12081;48.614;10.226;2022-10-23T11:13:26;25.20;71.80
23801;DHT22;12081;48.614;10.226;2022-10-23T11:19:17;25.10;70.00
23801;DHT22;12081;48.614;10.226;2022-10-23T11:36:55;22.10;83.80
23801;DHT22;12081;48.614;10.226;2022-10-23T11:42:50;21.90;90.10
23801;DHT22;12081;48.614;10.226;2022-10-23T11:45:37;21.80;91.10
23801;DHT22;12081;48.614;10.226;2022-10-23T11:48:38;21.70;90.60
23801;DHT22;12081;48.614;10.226;2022-10-23T11:51:35;21.30;92.30
23801;DHT22;12081;48.614;10.226;2022-10-23T11:54:22;21.10;93.50
23801;DHT22;12081;48.614;10.226;2022-10-23T11:57:13;20.70;95.60
23801;DHT22;12081;48.614;10.226;2022-10-23T11:59:58;20.40;97.70
23801;DHT22;12081;48.614;10.226;2022-10-23T12:02:42;19.70;99.90
23801;DHT22;12081;48.614;10.226;2022-10-23T12:05:33;19.40;99.90
23801;DHT22;12081;48.614;10.226;2022-10-23T12:08:24;19.10;99.90
23801;DHT22;12081;48.614;10.226;2022-10-23T12:11:40;18.60;99.90
23801;DHT22;12081;48.614;10.226;2022-10-23T12:14:27;18.30;99.90
23801;DHT22;12081;48.614;10.226;2022-10-23T12:23:08;17.80;99.90
23801;DHT22;12081;48.614;10.226;2022-10-23T12:29:10;17.70;99.90
23801;DHT22;12081;48.614;10.226;2022-10-23T12:38:12;17.90;99.90
23801;DHT22;12081;48.614;10.226;2022-10-23T12:41:13;17.80;99.90
23801;DHT22;12081;48.614;10.226;2022-10-23T12:44:03;18.00;99.90
23801;DHT22;12081;48.614;10.226;2022-10-23T12:46:52;18.30;99.90
23801;DHT22;12081;48.614;10.226;2022-10-23T12:49:37;18.60;99.90
23801;DHT22;12081;48.614;10.226;2022-10-23T12:52:22;18.90;99.90
23801;DHT22;12081;48.614;10.226;2022-10-23T12:55:13;19.40;99.90
23801;DHT22;12081;48.614;10.226;2022-10-23T12:57:58;19.90;99.90
23801;DHT22;12081;48.614;10.226;2022-10-23T13:00:49;20.60;99.90
23801;DHT22;12081;48.614;10.226;2022-10-23T13:03:34;21.30;99.90
23801;DHT22;12081;48.614;10.226;2022-10-23T13:06:18;22.30;99.70
23801;DHT22;12081;48.614;10.226;2022-10-23T13:09:03;23.00;95.60
23801;DHT22;12081;48.614;10.226;2022-10-23T13:11:50;22.90;93.70
23801;DHT22;12081;48.614;10.226;2022-10-23T13:14:36;23.10;94.00
23801;DHT22;12081;48.614;10.226;2022-10-23T13:17:42;23.20;93.80
23801;DHT22;12081;48.614;10.226;2022-10-23T13:23:32;23.50;92.60
23801;DHT22;12081;48.614;10.226;2022-10-23T13:26:36;23.70;90.80
23801;DHT22;12081;48.614;10.226;2022-10-23T13:29:33;23.80;89.90
23801;DHT22;12081;48.614;10.226;2022-10-23T13:32:25;23.80;90.20
23801;DHT22;12081;48.614;10.226;2022-10-23T13:35:21;22.90;90.40
23801;DHT22;12081;48.614;10.226;2022-10-23T13:38:09;23.50;90.40
23801;DHT22;12081;48.614;10.226;2022-10-23T13:40:58;23.40;90.80
23801;DHT22;12081;48.614;10.226;2022-10-23T13:43:44;23.30;91.00
23801;DHT22;12081;48.614;10.226;2022-10-23T13:46:28;23.00;91.70
23801;DHT22;12081;48.614;10.226;2022-10-23T13:49:13;22.90;92.90
23801;DHT22;12081;48.614;10.226;2022-10-23T13:51:57;22.80;93.20
23801;DHT22;12081;48.614;10.226;2022-10-23T13:54:41;22.70;93.50
23801;DHT22;12081;48.614;10.226;2022-10-23T13:57:26;22.50;94.10
23801;DHT22;12081;48.614;10.226;2022-10-23T14:00:10;22.50;95.00
23801;DHT22;12081;48.614;10.226;2022-10-23T14:02:54;22.50;95.40
23801;DHT22;12081;48.614;10.226;2022-10-23T14:05:38;22.20;96.00
23801;DHT22;12081;48.614;10.226;2022-10-23T14:08:22;21.70;97.10
23801;DHT22;12081;48.614;10.226;2022-10-23T14:11:08;21.20;99.90
23801;DHT22;12081;48.614;10.226;2022-10-23T14:13:53;20.80;99.90
23801;DHT22;12081;48.614;10.226;2022-10-23T14:16:37;20.50;99.90
23801;DHT22;12081;48.614;10.226;2022-10-23T14:19:21;20.20;99.90
23801;DHT22;12081;48.614;10.226;2022-10-23T14:22:05;19.90;99.90
23801;DHT22;12081;48.614;10.226;2022-10-23T14:24:49;19.70;99.90
23801;DHT22;12081;48.614;10.226;2022-10-23T14:27:33;19.60;99.90
23801;DHT22;12081;48.614;10.226;2022-10-23T14:30:17;19.50;99.90
23801;DHT22;12081;48.614;10.226;2022-10-23T14:33:02;19.30;99.90
23801;DHT22;12081;48.614;10.226;2022-10-23T14:35:49;19.10;99.90
23801;DHT22;12081;48.614;10.226;2022-10-23T14:38:34;18.90;99.90
23801;DHT22;12081;48.614;10.226;2022-10-23T14:41:18;18.80;99.90
23801;DHT22;12081;48.614;10.226;2022-10-23T14:44:02;18.60;99.90
23801;DHT22;12081;48.614;10.226;2022-10-23T14:46:46;18.50;99.90
23801;DHT22;12081;48.614;10.226;2022-10-23T14:49:30;18.30;99.90
23801;DHT22;12081;48.614;10.226;2022-10-23T14:52:15;18.20;99.90
23801;DHT22;12081;48.614;10.226;2022-10-23T14:54:59;18.10;99.90
23801;DHT22;12081;48.614;10.226;2022-10-23T14:57:45;17.90;99.90
23801;DHT22;12081;48.614;10.226;2022-10-23T15:00:29;17.80;99.90
23801;DHT22;12081;48.614;10.226;2022-10-23T15:03:13;17.60;99.90
23801;DHT22;12081;48.614;10.226;2022-10-23T15:05:58;17.60;99.90
23801;DHT22;12081;48.614;10.226;2022-10-23T15:08:42;17.50;99.90
23801;DHT22;12081;48.614;10.226;2022-10-23T15:11:26;17.50;99.90
23801;DHT22;12081;48.614;10.226;2022-10-23T15:14:11;17.40;99.90
23801;DHT22;12081;48.614;10.226;2022-10-23T15:16:55;16.10;99.90
23801;DHT22;12081;48.614;10.226;2022-10-23T15:19:39;17.30;99.90
23801;DHT22;12081;48.614;10.226;2022-10-23T15:22:23;17.30;99.90
23801;DHT22;12081;48.614;10.226;2022-10-23T15:25:08;17.20;99.90
23801;DHT22;12081;48.614;10.226;2022-10-23T15:27:52;17.10;99.90
23801;DHT22;12081;48.614;10.226;2022-10-23T15:30:36;17.00;99.90
23801;DHT22;12081;48.614;10.226;2022-10-23T15:33:26;17.90;99.90
23801;DHT22;12081;48.614;10.226;2022-10-23T15:36:11;16.80;99.90
23801;DHT22;12081;48.614;10.226;2022-10-23T15:38:55;16.70;99.90
23801;DHT22;12081;48.614;10.226;2022-10-23T15:41:41;16.60;99.90
23801;DHT22;12081;48.614;10.226;2022-10-23T15:44:27;16.50;99.90
23801;DHT22;12081;48.614;10.226;2022-10-23T15:47:11;16.50;99.90
23801;DHT22;12081;48.614;10.226;2022-10-23T15:49:56;16.40;99.90
23801;DHT22;12081;48.614;10.226;2022-10-23T15:52:40;16.30;99.90
23801;DHT22;12081;48.614;10.226;2022-10-23T15:55:24;16.20;99.90
23801;DHT22;12081;48.614;10.226;2022-10-23T15:58:08;16.20;99.90
23801;DHT22;12081;48.614;10.226;2022-10-23T16:00:52;16.10;99.90
23801;DHT22;12081;48.614;10.226;2022-10-23T16:03:37;16.00;99.90
23801;DHT22;12081;48.614;10.226;2022-10-23T16:06:21;16.10;99.90
23801;DHT22;12081;48.614;10.226;2022-10-23T16:09:06;15.90;99.90
23801;DHT22;12081;48.614;10.226;2022-10-23T16:11:50;16.00;99.90
23801;DHT22;12081;48.614;10.226;2022-10-23T16:14:34;15.90;99.90
23801;DHT22;12081;48.614;10.226;2022-10-23T16:17:18;15.80;99.90
23801;DHT22;12081;48.614;10.226;2022-10-23T16:20:03;15.90;99.90
23801;DHT22;12081;48.614;10.226;2022-10-23T16:22:47;15.60;99.90
23801;DHT22;12081;48.614;10.226;2022-10-23T16:25:35;15.60;99.90
23801;DHT22;12081;48.614;10.226;2022-10-23T16:28:20;15.50;99.90
23801;DHT22;12081;48.614;10.226;2022-10-23T16:31:09;15.40;99.90
23801;DHT22;12081;48.614;10.226;2022-10-23T16:33:57;15.30;99.90
23801;DHT22;12081;48.614;10.226;2022-10-23T16:36:42;15.20;99.90
23801;DHT22;12081;48.614;10.226;2022-10-23T16:39:26;15.10;99.90
23801;DHT22;12081;48.614;10.226;2022-10-23T16:42:11;15.10;99.90
23801;DHT22;12081;48.614;10.226;2022-10-23T16:44:55;15.20;99.90
23801;DHT22;12081;48.614;10.226;2022-10-23T16:47:39;15.10;99.90
23801;DHT22;12081;48.614;10.226;2022-10-23T16:50:23;15.00;99.90
23801;DHT22;12081;48.614;10.226;2022-10-23T16:53:07;15.00;99.90
23801;DHT22;12081;48.614;10.226;2022-10-23T16:55:52;15.00;99.90
23801;DHT22;12081;48.614;10.226;2022-10-23T16:58:36;14.90;99.90
23801;DHT22;12081;48.614;10.226;2022-10-23T17:01:26;14.90;99.90
23801;DHT22;12081;48.614;10.226;2022-10-23T17:04:11;14.80;99.90
23801;DHT22;12081;48.614;10.226;2022-10-23T17:06:55;14.80;99.90
23801;DHT22;12081;48.614;10.226;2022-10-23T17:09:39;15.10;99.90
23801;DHT22;12081;48.614;10.226;2022-10-23T17:12:23;14.80;99.90
23801;DHT22;12081;48.614;10.226;2022-10-23T17:15:08;14.80;99.90
23801;DHT22;12081;48.614;10.226;2022-10-23T17:17:52;14.60;99.90
23801;DHT22;12081;48.614;10.226;2022-10-23T17:20:37;14.50;99.90
23801;DHT22;12081;48.614;10.226;2022-10-23T17:23:21;14.60;99.90
23801;DHT22;12081;48.614;10.226;2022-10-23T17:26:07;14.60;99.90
23801;DHT22;12081;48.614;10.226;2022-10-23T17:28:51;14.50;99.90
23801;DHT22;12081;48.614;10.226;2022-10-23T17:31:38;15.10;99.90
23801;DHT22;12081;48.614;10.226;2022-10-23T17:34:22;14.40;99.90
23801;DHT22;12081;48.614;10.226;2022-10-23T17:37:07;14.40;99.90
23801;DHT22;12081;48.614;10.226;2022-10-23T17:39:51;14.50;99.90
23801;DHT22;12081;48.614;10.226;2022-10-23T17:42:35;14.40;99.90
23801;DHT22;12081;48.614;10.226;2022-10-23T17:45:19;14.50;99.90
23801;DHT22;12081;48.614;10.226;2022-10-23T17:48:03;15.30;99.90
23801;DHT22;12081;48.614;10.226;2022-10-23T17:50:47;14.50;99.90
23801;DHT22;12081;48.614;10.226;2022-10-23T17:53:33;14.40;99.90
23801;DHT22;12081;48.614;10.226;2022-10-23T17:56:21;14.40;99.90
23801;DHT22;12081;48.614;10.226;2022-10-23T17:59:10;14.30;99.90
23801;DHT22;12081;48.614;10.226;2022-10-23T18:01:55;14.40;99.90
23801;DHT22;12081;48.614;10.226;2022-10-23T18:04:41;14.30;99.90
23801;DHT22;12081;48.614;10.226;2022-10-23T18:07:25;14.30;99.90
23801;DHT22;12081;48.614;10.226;2022-10-23T18:10:10;14.30;99.90
23801;DHT22;12081;48.614;10.226;2022-10-23T18:12:54;14.40;99.90
23801;DHT22;12081;48.614;10.226;2022-10-23T18:15:38;14.30;99.90
23801;DHT22;12081;48.614;10.226;2022-10-23T18:18:23;14.20;99.90
23801;DHT22;12081;48.614;10.226;2022-10-23T18:21:07;14.20;99.90
23801;DHT22;12081;48.614;10.226;2022-10-23T18:23:51;14.00;99.90
23801;DHT22;12081;48.614;10.226;2022-10-23T18:26:36;14.00;99.90
23801;DHT22;12081;48.614;10.226;2022-10-23T18:29:21;13.90;99.90
23801;DHT22;12081;48.614;10.226;2022-10-23T18:32:05;14.00;99.90
23801;DHT22;12081;48.614;10.226;2022-10-23T18:34:49;13.80;99.90
23801;DHT22;12081;48.614;10.226;2022-10-23T18:37:34;14.30;99.90
23801;DHT22;12081;48.614;10.226;2022-10-23T18:40:18;14.40;99.90
23801;DHT22;12081;48.614;10.226;2022-10-23T18:43:03;13.90;99.90
23801;DHT22;12081;48.614;10.226;2022-10-23T18:45:47;13.90;99.90
23801;DHT22;12081;48.614;10.226;2022-10-23T18:48:31;13.90;99.90
23801;DHT22;12081;48.614;10.226;2022-10-23T18:51:20;13.80;99.90
23801;DHT22;12081;48.614;10.226;2022-10-23T18:54:08;13.80;99.90
23801;DHT22;12081;48.614;10.226;2022-10-23T18:56:53;13.80;99.90
23801;DHT22;12081;48.614;10.226;2022-10-23T18:59:37;14.60;99.90
23801;DHT22;12081;48.614;10.226;2022-10-23T19:02:21;13.90;99.90
23801;DHT22;12081;48.614;10.226;2022-10-23T19:05:06;13.80;99.90
23801;DHT22;12081;48.614;10.226;2022-10-23T19:07:50;13.80;99.90
23801;DHT22;12081;48.614;10.226;2022-10-23T19:10:35;14.40;99.90
23801;DHT22;12081;48.614;10.226;2022-10-23T19:13:19;13.80;99.90
23801;DHT22;12081;48.614;10.226;2022-10-23T19:19:26;13.80;99.90
23801;DHT22;12081;48.614;10.226;2022-10-23T19:22:09;13.90;99.90
23801;DHT22;12081;48.614;10.226;2022-10-23T19:25:01;13.90;99.90
23801;DHT22;12081;48.614;10.226;2022-10-23T19:27:46;13.90;99.90
23801;DHT22;12081;48.614;10.226;2022-10-23T19:30:31;13.90;99.90
23801;DHT22;12081;48.614;10.226;2022-10-23T19:33:15;13.90;99.90
23801;DHT22;12081;48.614;10.226;2022-10-23T19:35:59;14.10;99.90
23801;DHT22;12081;48.614;10.226;2022-10-23T19:38:43;14.00;99.90
23801;DHT22;12081;48.614;10.226;2022-10-23T19:41:28;14.00;99.90